Buffalo, New York
Current Conditions -  °F | °C
As of 8:54 PM on Monday 20 Oct 2014 (Local Time) from KBUF Reporting Station
Overcast Overcast  
Wind Chill: 11°   Ceiling: 3000
Heat Index: 11°   Visibility: 10mi
Dew Point:   Wind: 15mph
Humidity: 83%   Direction: 210°SSW
Pressure: 29.83"   Gusts: NA
Location:  42.89°N, 78.88°W
Report Text: KBUF 210054Z 21013KT 10SM BKN030 OVC036 11/08 A2983 RMK AO2 RAE2357B15E42 SLP104 P0000 T01060078
Loading
Personal Weather Stations






























Interactive Weather Map
Tropical Storm Tracking
New forecast layout! Learn more

10-Day Weather Forecast

Advertisements
Track Severe Weather on mobile